sensor_id;sensor_type;location;lat;lon;timestamp;temperature;humidity
15844;DHT22;50807;52.436;13.346;2023-06-04T00:00:29;17.40;43.30
15844;DHT22;50807;52.436;13.346;2023-06-04T00:01:00;17.40;43.30
15844;DHT22;50807;52.436;13.346;2023-06-04T00:01:30;17.40;43.30
15844;DHT22;50807;52.436;13.346;2023-06-04T00:02:02;17.40;43.30
15844;DHT22;50807;52.436;13.346;2023-06-04T00:02:33;17.40;43.30
15844;DHT22;50807;52.436;13.346;2023-06-04T00:03:04;17.40;43.40
15844;DHT22;50807;52.436;13.346;2023-06-04T00:03:35;17.40;43.40
15844;DHT22;50807;52.436;13.346;2023-06-04T00:04:06;17.40;43.40
15844;DHT22;50807;52.436;13.346;2023-06-04T00:04:37;17.40;43.40
15844;DHT22;50807;52.436;13.346;2023-06-04T00:05:08;17.30;43.40
15844;DHT22;50807;52.436;13.346;2023-06-04T00:05:40;17.40;43.40
15844;DHT22;50807;52.436;13.346;2023-06-04T00:06:10;17.40;43.40
15844;DHT22;50807;52.436;13.346;2023-06-04T00:06:41;17.30;43.40
15844;DHT22;50807;52.436;13.346;2023-06-04T00:07:14;17.30;43.90
15844;DHT22;50807;52.436;13.346;2023-06-04T00:07:44;17.30;43.50
15844;DHT22;50807;52.436;13.346;2023-06-04T00:08:15;17.30;43.50
15844;DHT22;50807;52.436;13.346;2023-06-04T00:08:47;17.30;43.50
15844;DHT22;50807;52.436;13.346;2023-06-04T00:09:18;17.30;43.50
15844;DHT22;50807;52.436;13.346;2023-06-04T00:09:49;17.30;43.60
15844;DHT22;50807;52.436;13.346;2023-06-04T00:10:20;17.30;43.60
15844;DHT22;50807;52.436;13.346;2023-06-04T00:10:52;17.20;43.60
15844;DHT22;50807;52.436;13.346;2023-06-04T00:11:23;17.20;43.60
15844;DHT22;50807;52.436;13.346;2023-06-04T00:11:54;17.20;43.60
15844;DHT22;50807;52.436;13.346;2023-06-04T00:12:26;17.30;43.70
15844;DHT22;50807;52.436;13.346;2023-06-04T00:12:56;17.30;43.70
15844;DHT22;50807;52.436;13.346;2023-06-04T00:13:27;17.20;43.60
15844;DHT22;50807;52.436;13.346;2023-06-04T00:14:00;17.20;44.30
15844;DHT22;50807;52.436;13.346;2023-06-04T00:14:31;17.20;43.60
15844;DHT22;50807;52.436;13.346;2023-06-04T00:15:02;17.20;43.70
15844;DHT22;50807;52.436;13.346;2023-06-04T00:15:34;17.20;43.70
15844;DHT22;50807;52.436;13.346;2023-06-04T00:16:05;17.20;43.70
15844;DHT22;50807;52.436;13.346;2023-06-04T00:16:35;17.20;43.70
15844;DHT22;50807;52.436;13.346;2023-06-04T00:17:08;17.20;43.80
15844;DHT22;50807;52.436;13.346;2023-06-04T00:17:40;17.20;43.80
15844;DHT22;50807;52.436;13.346;2023-06-04T00:18:11;17.20;43.80
15844;DHT22;50807;52.436;13.346;2023-06-04T00:18:44;17.10;43.70
15844;DHT22;50807;52.436;13.346;2023-06-04T00:19:15;17.10;43.70
15844;DHT22;50807;52.436;13.346;2023-06-04T00:19:45;17.20;43.80
15844;DHT22;50807;52.436;13.346;2023-06-04T00:20:18;17.10;43.70
15844;DHT22;50807;52.436;13.346;2023-06-04T00:20:50;17.20;43.80
15844;DHT22;50807;52.436;13.346;2023-06-04T00:21:21;17.10;43.80
15844;DHT22;50807;52.436;13.346;2023-06-04T00:21:52;17.10;43.80
15844;DHT22;50807;52.436;13.346;2023-06-04T00:22:24;17.10;43.80
15844;DHT22;50807;52.436;13.346;2023-06-04T00:22:55;17.10;43.80
15844;DHT22;50807;52.436;13.346;2023-06-04T00:23:26;17.10;43.80
15844;DHT22;50807;52.436;13.346;2023-06-04T00:23:57;17.10;43.80
15844;DHT22;50807;52.436;13.346;2023-06-04T00:24:28;17.10;43.80
15844;DHT22;50807;52.436;13.346;2023-06-04T00:24:59;17.10;43.80
15844;DHT22;50807;52.436;13.346;2023-06-04T00:25:31;17.10;43.80
15844;DHT22;50807;52.436;13.346;2023-06-04T00:26:04;17.00;43.80
15844;DHT22;50807;52.436;13.346;2023-06-04T00:26:35;17.00;43.80
15844;DHT22;50807;52.436;13.346;2023-06-04T00:27:07;17.10;43.80
15844;DHT22;50807;52.436;13.346;2023-06-04T00:27:39;17.00;43.80
15844;DHT22;50807;52.436;13.346;2023-06-04T00:28:09;17.00;43.70
15844;DHT22;50807;52.436;13.346;2023-06-04T00:28:40;17.00;43.80
15844;DHT22;50807;52.436;13.346;2023-06-04T00:29:12;17.00;43.80
15844;DHT22;50807;52.436;13.346;2023-06-04T00:29:43;17.00;43.80
15844;DHT22;50807;52.436;13.346;2023-06-04T00:30:14;17.00;43.80
15844;DHT22;50807;52.436;13.346;2023-06-04T00:30:46;17.00;43.90
15844;DHT22;50807;52.436;13.346;2023-06-04T00:31:16;17.00;43.90
15844;DHT22;50807;52.436;13.346;2023-06-04T00:31:48;17.00;43.90
15844;DHT22;50807;52.436;13.346;2023-06-04T00:32:19;17.00;44.00
15844;DHT22;50807;52.436;13.346;2023-06-04T00:32:50;17.00;44.00
15844;DHT22;50807;52.436;13.346;2023-06-04T00:33:21;17.00;44.00
15844;DHT22;50807;52.436;13.346;2023-06-04T00:33:52;17.00;44.00
15844;DHT22;50807;52.436;13.346;2023-06-04T00:34:23;17.00;44.10
15844;DHT22;50807;52.436;13.346;2023-06-04T00:34:55;16.90;44.00
15844;DHT22;50807;52.436;13.346;2023-06-04T00:35:28;16.90;44.10
15844;DHT22;50807;52.436;13.346;2023-06-04T00:35:59;16.90;44.10
15844;DHT22;50807;52.436;13.346;2023-06-04T00:36:30;16.90;44.10
15844;DHT22;50807;52.436;13.346;2023-06-04T00:37:01;16.90;44.20
15844;DHT22;50807;52.436;13.346;2023-06-04T00:37:32;16.90;44.20
15844;DHT22;50807;52.436;13.346;2023-06-04T00:38:03;16.90;44.20
15844;DHT22;50807;52.436;13.346;2023-06-04T00:38:34;16.90;44.20
15844;DHT22;50807;52.436;13.346;2023-06-04T00:39:05;16.90;44.30
15844;DHT22;50807;52.436;13.346;2023-06-04T00:39:36;16.90;44.30
15844;DHT22;50807;52.436;13.346;2023-06-04T00:40:08;16.90;44.30
15844;DHT22;50807;52.436;13.346;2023-06-04T00:40:39;16.90;45.00
15844;DHT22;50807;52.436;13.346;2023-06-04T00:41:11;16.90;44.30
15844;DHT22;50807;52.436;13.346;2023-06-04T00:41:43;16.90;44.40
15844;DHT22;50807;52.436;13.346;2023-06-04T00:42:14;16.90;44.40
15844;DHT22;50807;52.436;13.346;2023-06-04T00:42:44;16.90;44.40
15844;DHT22;50807;52.436;13.346;2023-06-04T00:43:16;16.90;44.40
15844;DHT22;50807;52.436;13.346;2023-06-04T00:43:47;16.80;44.40
15844;DHT22;50807;52.436;13.346;2023-06-04T00:44:26;16.80;44.40
15844;DHT22;50807;52.436;13.346;2023-06-04T00:44:58;16.80;44.50
15844;DHT22;50807;52.436;13.346;2023-06-04T00:45:29;16.80;44.50
15844;DHT22;50807;52.436;13.346;2023-06-04T00:46:02;16.80;44.50
15844;DHT22;50807;52.436;13.346;2023-06-04T00:46:34;16.80;44.50
15844;DHT22;50807;52.436;13.346;2023-06-04T00:47:07;16.80;44.60
15844;DHT22;50807;52.436;13.346;2023-06-04T00:47:38;16.80;44.50
15844;DHT22;50807;52.436;13.346;2023-06-04T00:48:09;16.80;44.60
15844;DHT22;50807;52.436;13.346;2023-06-04T00:48:41;16.80;44.60
15844;DHT22;50807;52.436;13.346;2023-06-04T00:49:13;16.80;44.60
15844;DHT22;50807;52.436;13.346;2023-06-04T00:49:44;16.80;44.60
15844;DHT22;50807;52.436;13.346;2023-06-04T00:50:16;16.80;44.70
15844;DHT22;50807;52.436;13.346;2023-06-04T00:50:47;16.80;44.70
15844;DHT22;50807;52.436;13.346;2023-06-04T00:51:19;16.80;44.70
15844;DHT22;50807;52.436;13.346;2023-06-04T00:51:51;16.80;44.80
15844;DHT22;50807;52.436;13.346;2023-06-04T00:52:22;16.70;44.70
15844;DHT22;50807;52.436;13.346;2023-06-04T00:52:54;16.70;44.70
15844;DHT22;50807;52.436;13.346;2023-06-04T00:53:26;16.70;44.80
15844;DHT22;50807;52.436;13.346;2023-06-04T00:53:58;16.70;44.80
15844;DHT22;50807;52.436;13.346;2023-06-04T00:54:32;16.70;44.80
15844;DHT22;50807;52.436;13.346;2023-06-04T00:55:04;16.70;44.80
15844;DHT22;50807;52.436;13.346;2023-06-04T00:55:36;16.70;44.90
15844;DHT22;50807;52.436;13.346;2023-06-04T00:56:06;16.70;44.90
15844;DHT22;50807;52.436;13.346;2023-06-04T00:56:40;16.70;44.90
15844;DHT22;50807;52.436;13.346;2023-06-04T00:57:11;16.60;44.90
15844;DHT22;50807;52.436;13.346;2023-06-04T00:57:41;16.60;44.90
15844;DHT22;50807;52.436;13.346;2023-06-04T00:58:13;16.60;45.00
15844;DHT22;50807;52.436;13.346;2023-06-04T00:58:46;16.60;45.00
15844;DHT22;50807;52.436;13.346;2023-06-04T00:59:17;16.60;45.00
15844;DHT22;50807;52.436;13.346;2023-06-04T00:59:49;16.60;45.10
15844;DHT22;50807;52.436;13.346;2023-06-04T01:00:20;16.60;45.10
15844;DHT22;50807;52.436;13.346;2023-06-04T01:00:55;16.60;45.20
15844;DHT22;50807;52.436;13.346;2023-06-04T01:01:33;16.60;45.20
15844;DHT22;50807;52.436;13.346;2023-06-04T01:02:12;16.60;45.20
15844;DHT22;50807;52.436;13.346;2023-06-04T01:02:46;16.60;45.20
15844;DHT22;50807;52.436;13.346;2023-06-04T01:03:23;16.60;45.20
15844;DHT22;50807;52.436;13.346;2023-06-04T01:04:01;16.60;45.30
15844;DHT22;50807;52.436;13.346;2023-06-04T01:04:45;16.50;45.20
15844;DHT22;50807;52.436;13.346;2023-06-04T01:05:26;16.50;45.20
15844;DHT22;50807;52.436;13.346;2023-06-04T01:06:07;16.50;45.20
15844;DHT22;50807;52.436;13.346;2023-06-04T01:06:45;16.60;45.30
15844;DHT22;50807;52.436;13.346;2023-06-04T01:07:21;16.50;45.20
15844;DHT22;50807;52.436;13.346;2023-06-04T01:07:53;16.60;45.30
15844;DHT22;50807;52.436;13.346;2023-06-04T01:08:25;16.50;45.20
15844;DHT22;50807;52.436;13.346;2023-06-04T01:08:58;16.50;45.30
15844;DHT22;50807;52.436;13.346;2023-06-04T01:09:31;16.50;45.40
15844;DHT22;50807;52.436;13.346;2023-06-04T01:10:03;16.50;45.50
15844;DHT22;50807;52.436;13.346;2023-06-04T01:10:36;16.50;45.50
15844;DHT22;50807;52.436;13.346;2023-06-04T01:11:07;16.40;45.40
15844;DHT22;50807;52.436;13.346;2023-06-04T01:11:40;16.40;45.40
15844;DHT22;50807;52.436;13.346;2023-06-04T01:12:12;16.40;45.40
15844;DHT22;50807;52.436;13.346;2023-06-04T01:12:43;16.50;45.60
15844;DHT22;50807;52.436;13.346;2023-06-04T01:13:14;16.40;45.50
15844;DHT22;50807;52.436;13.346;2023-06-04T01:13:46;16.40;45.60
15844;DHT22;50807;52.436;13.346;2023-06-04T01:14:16;16.40;45.60
15844;DHT22;50807;52.436;13.346;2023-06-04T01:14:48;16.40;45.70
15844;DHT22;50807;52.436;13.346;2023-06-04T01:15:20;16.40;45.70
15844;DHT22;50807;52.436;13.346;2023-06-04T01:15:51;16.40;45.70
15844;DHT22;50807;52.436;13.346;2023-06-04T01:16:22;16.40;45.80
15844;DHT22;50807;52.436;13.346;2023-06-04T01:16:56;16.30;45.90
15844;DHT22;50807;52.436;13.346;2023-06-04T01:17:37;16.30;45.90
15844;DHT22;50807;52.436;13.346;2023-06-04T01:18:12;16.40;45.90
15844;DHT22;50807;52.436;13.346;2023-06-04T01:18:57;16.40;45.90
15844;DHT22;50807;52.436;13.346;2023-06-04T01:19:57;16.30;45.90
15844;DHT22;50807;52.436;13.346;2023-06-04T01:20:39;16.30;45.90
15844;DHT22;50807;52.436;13.346;2023-06-04T01:21:14;16.40;45.80
15844;DHT22;50807;52.436;13.346;2023-06-04T01:21:50;16.40;45.80
15844;DHT22;50807;52.436;13.346;2023-06-04T01:22:33;16.30;45.80
15844;DHT22;50807;52.436;13.346;2023-06-04T01:23:24;16.30;45.90
15844;DHT22;50807;52.436;13.346;2023-06-04T01:24:05;16.30;45.90
15844;DHT22;50807;52.436;13.346;2023-06-04T01:24:41;16.30;45.80
15844;DHT22;50807;52.436;13.346;2023-06-04T01:25:21;16.30;45.90
15844;DHT22;50807;52.436;13.346;2023-06-04T01:25:56;16.30;45.90
15844;DHT22;50807;52.436;13.346;2023-06-04T01:26:30;16.30;45.90
15844;DHT22;50807;52.436;13.346;2023-06-04T01:27:03;16.30;46.00
15844;DHT22;50807;52.436;13.346;2023-06-04T01:27:36;16.20;46.00
15844;DHT22;50807;52.436;13.346;2023-06-04T01:28:12;16.20;46.10
15844;DHT22;50807;52.436;13.346;2023-06-04T01:28:46;16.20;46.10
15844;DHT22;50807;52.436;13.346;2023-06-04T01:29:18;16.20;46.20
15844;DHT22;50807;52.436;13.346;2023-06-04T01:29:49;16.20;46.20
15844;DHT22;50807;52.436;13.346;2023-06-04T01:30:24;16.20;46.20
15844;DHT22;50807;52.436;13.346;2023-06-04T01:30:58;16.20;46.30
15844;DHT22;50807;52.436;13.346;2023-06-04T01:31:32;16.20;46.30
15844;DHT22;50807;52.436;13.346;2023-06-04T01:32:05;16.20;46.40
15844;DHT22;50807;52.436;13.346;2023-06-04T01:32:36;16.20;46.40
15844;DHT22;50807;52.436;13.346;2023-06-04T01:33:08;16.20;46.50
15844;DHT22;50807;52.436;13.346;2023-06-04T01:33:40;16.10;46.50
15844;DHT22;50807;52.436;13.346;2023-06-04T01:34:11;16.10;46.50
15844;DHT22;50807;52.436;13.346;2023-06-04T01:34:45;16.10;46.60
15844;DHT22;50807;52.436;13.346;2023-06-04T01:35:17;16.10;46.60
15844;DHT22;50807;52.436;13.346;2023-06-04T01:35:48;16.10;46.60
15844;DHT22;50807;52.436;13.346;2023-06-04T01:36:20;16.10;46.70
15844;DHT22;50807;52.436;13.346;2023-06-04T01:36:51;16.10;46.70
15844;DHT22;50807;52.436;13.346;2023-06-04T01:37:22;16.10;46.70
15844;DHT22;50807;52.436;13.346;2023-06-04T01:37:54;16.10;46.80
15844;DHT22;50807;52.436;13.346;2023-06-04T01:38:26;16.10;47.40
15844;DHT22;50807;52.436;13.346;2023-06-04T01:38:57;16.00;46.80
15844;DHT22;50807;52.436;13.346;2023-06-04T01:39:29;16.00;46.90
15844;DHT22;50807;52.436;13.346;2023-06-04T01:40:00;16.00;46.90
15844;DHT22;50807;52.436;13.346;2023-06-04T01:40:31;16.00;46.90
15844;DHT22;50807;52.436;13.346;2023-06-04T01:41:03;16.00;46.90
15844;DHT22;50807;52.436;13.346;2023-06-04T01:41:34;16.00;47.00
15844;DHT22;50807;52.436;13.346;2023-06-04T01:42:07;16.00;47.00
15844;DHT22;50807;52.436;13.346;2023-06-04T01:42:38;16.00;47.10
15844;DHT22;50807;52.436;13.346;2023-06-04T01:43:10;16.00;47.00
15844;DHT22;50807;52.436;13.346;2023-06-04T01:43:41;16.00;47.00
15844;DHT22;50807;52.436;13.346;2023-06-04T01:44:11;16.00;47.10
15844;DHT22;50807;52.436;13.346;2023-06-04T01:44:43;16.00;47.20
15844;DHT22;50807;52.436;13.346;2023-06-04T01:45:14;16.00;47.20
15844;DHT22;50807;52.436;13.346;2023-06-04T01:45:44;16.00;47.20
15844;DHT22;50807;52.436;13.346;2023-06-04T01:46:17;16.00;47.20
15844;DHT22;50807;52.436;13.346;2023-06-04T01:46:47;16.00;47.20
15844;DHT22;50807;52.436;13.346;2023-06-04T01:47:18;16.00;47.30
15844;DHT22;50807;52.436;13.346;2023-06-04T01:47:50;15.90;47.30
15844;DHT22;50807;52.436;13.346;2023-06-04T01:48:21;15.90;48.00
15844;DHT22;50807;52.436;13.346;2023-06-04T01:48:52;15.90;47.30
15844;DHT22;50807;52.436;13.346;2023-06-04T01:49:24;16.00;47.40
15844;DHT22;50807;52.436;13.346;2023-06-04T01:49:54;15.90;47.40
15844;DHT22;50807;52.436;13.346;2023-06-04T01:50:25;15.90;47.40
15844;DHT22;50807;52.436;13.346;2023-06-04T01:50:57;15.90;47.50
15844;DHT22;50807;52.436;13.346;2023-06-04T01:51:27;15.90;47.50
15844;DHT22;50807;52.436;13.346;2023-06-04T01:51:58;15.90;47.50
15844;DHT22;50807;52.436;13.346;2023-06-04T01:52:30;15.90;47.50
15844;DHT22;50807;52.436;13.346;2023-06-04T01:53:01;15.90;47.60
15844;DHT22;50807;52.436;13.346;2023-06-04T01:53:32;15.90;47.60
15844;DHT22;50807;52.436;13.346;2023-06-04T01:54:03;15.90;47.60
15844;DHT22;50807;52.436;13.346;2023-06-04T01:54:34;15.90;47.70
15844;DHT22;50807;52.436;13.346;2023-06-04T01:55:07;15.90;47.70
15844;DHT22;50807;52.436;13.346;2023-06-04T01:55:39;15.80;47.70
15844;DHT22;50807;52.436;13.346;2023-06-04T01:56:11;15.90;47.80
15844;DHT22;50807;52.436;13.346;2023-06-04T01:56:43;15.80;47.70
15844;DHT22;50807;52.436;13.346;2023-06-04T01:57:15;15.90;47.80
15844;DHT22;50807;52.436;13.346;2023-06-04T01:57:47;15.80;47.80
15844;DHT22;50807;52.436;13.346;2023-06-04T01:58:17;15.80;47.80
15844;DHT22;50807;52.436;13.346;2023-06-04T01:58:53;15.80;47.80
15844;DHT22;50807;52.436;13.346;2023-06-04T01:59:25;15.80;47.80
15844;DHT22;50807;52.436;13.346;2023-06-04T01:59:57;15.80;47.80
15844;DHT22;50807;52.436;13.346;2023-06-04T02:00:28;15.80;47.90
15844;DHT22;50807;52.436;13.346;2023-06-04T02:01:00;15.80;47.90
15844;DHT22;50807;52.436;13.346;2023-06-04T02:01:33;15.80;48.00
15844;DHT22;50807;52.436;13.346;2023-06-04T02:02:04;15.80;47.90
15844;DHT22;50807;52.436;13.346;2023-06-04T02:02:37;15.80;48.00
15844;DHT22;50807;52.436;13.346;2023-06-04T02:03:08;15.80;48.10
15844;DHT22;50807;52.436;13.346;2023-06-04T02:03:39;15.80;48.10
15844;DHT22;50807;52.436;13.346;2023-06-04T02:04:11;15.80;48.10
15844;DHT22;50807;52.436;13.346;2023-06-04T02:04:41;15.80;48.10
15844;DHT22;50807;52.436;13.346;2023-06-04T02:05:13;15.80;48.20
15844;DHT22;50807;52.436;13.346;2023-06-04T02:05:45;15.70;48.20
15844;DHT22;50807;52.436;13.346;2023-06-04T02:06:17;15.70;48.20
15844;DHT22;50807;52.436;13.346;2023-06-04T02:06:47;15.70;48.20
15844;DHT22;50807;52.436;13.346;2023-06-04T02:07:19;15.70;48.20
15844;DHT22;50807;52.436;13.346;2023-06-04T02:07:52;15.70;48.20
15844;DHT22;50807;52.436;13.346;2023-06-04T02:08:22;15.70;48.20
15844;DHT22;50807;52.436;13.346;2023-06-04T02:08:55;15.70;48.30
15844;DHT22;50807;52.436;13.346;2023-06-04T02:09:27;15.70;48.30
15844;DHT22;50807;52.436;13.346;2023-06-04T02:09:58;15.70;48.30
15844;DHT22;50807;52.436;13.346;2023-06-04T02:10:28;15.70;48.40
15844;DHT22;50807;52.436;13.346;2023-06-04T02:10:59;15.70;48.40
15844;DHT22;50807;52.436;13.346;2023-06-04T02:11:31;15.70;48.50
15844;DHT22;50807;52.436;13.346;2023-06-04T02:12:03;15.70;48.50
15844;DHT22;50807;52.436;13.346;2023-06-04T02:12:37;15.70;48.50
15844;DHT22;50807;52.436;13.346;2023-06-04T02:13:09;15.70;48.50
15844;DHT22;50807;52.436;13.346;2023-06-04T02:13:40;15.70;48.50
15844;DHT22;50807;52.436;13.346;2023-06-04T02:14:11;15.70;48.50
15844;DHT22;50807;52.436;13.346;2023-06-04T02:14:42;15.70;48.60
15844;DHT22;50807;52.436;13.346;2023-06-04T02:15:15;15.60;48.50
15844;DHT22;50807;52.436;13.346;2023-06-04T02:15:46;15.60;48.50
15844;DHT22;50807;52.436;13.346;2023-06-04T02:16:17;15.60;48.60
15844;DHT22;50807;52.436;13.346;2023-06-04T02:16:48;15.60;48.60
15844;DHT22;50807;52.436;13.346;2023-06-04T02:17:20;15.60;48.60
15844;DHT22;50807;52.436;13.346;2023-06-04T02:17:54;15.60;48.70
15844;DHT22;50807;52.436;13.346;2023-06-04T02:18:29;15.60;48.80
15844;DHT22;50807;52.436;13.346;2023-06-04T02:19:00;15.60;48.70
15844;DHT22;50807;52.436;13.346;2023-06-04T02:19:31;15.60;48.70
15844;DHT22;50807;52.436;13.346;2023-06-04T02:20:04;15.60;48.70
15844;DHT22;50807;52.436;13.346;2023-06-04T02:20:36;15.60;48.80
15844;DHT22;50807;52.436;13.346;2023-06-04T02:21:07;15.60;48.80
15844;DHT22;50807;52.436;13.346;2023-06-04T02:21:38;15.60;48.90
15844;DHT22;50807;52.436;13.346;2023-06-04T02:22:09;15.60;48.80
15844;DHT22;50807;52.436;13.346;2023-06-04T02:22:40;15.60;48.90
15844;DHT22;50807;52.436;13.346;2023-06-04T02:23:12;15.60;48.90
15844;DHT22;50807;52.436;13.346;2023-06-04T02:23:45;15.60;49.00
15844;DHT22;50807;52.436;13.346;2023-06-04T02:24:15;15.50;48.90
15844;DHT22;50807;52.436;13.346;2023-06-04T02:24:46;15.60;49.00
15844;DHT22;50807;52.436;13.346;2023-06-04T02:25:18;15.50;49.00
15844;DHT22;50807;52.436;13.346;2023-06-04T02:25:49;15.50;49.10
15844;DHT22;50807;52.436;13.346;2023-06-04T02:26:19;15.50;49.10
15844;DHT22;50807;52.436;13.346;2023-06-04T02:26:52;15.60;49.20
15844;DHT22;50807;52.436;13.346;2023-06-04T02:27:23;15.50;49.20
15844;DHT22;50807;52.436;13.346;2023-06-04T02:27:55;15.50;49.20
15844;DHT22;50807;52.436;13.346;2023-06-04T02:28:27;15.50;49.30
15844;DHT22;50807;52.436;13.346;2023-06-04T02:28:57;15.50;49.30
15844;DHT22;50807;52.436;13.346;2023-06-04T02:29:29;15.50;49.30
15844;DHT22;50807;52.436;13.346;2023-06-04T02:30:00;15.50;49.30
15844;DHT22;50807;52.436;13.346;2023-06-04T02:30:30;15.50;49.30
15844;DHT22;50807;52.436;13.346;2023-06-04T02:31:02;15.50;49.40
15844;DHT22;50807;52.436;13.346;2023-06-04T02:31:33;15.50;49.40
15844;DHT22;50807;52.436;13.346;2023-06-04T02:32:04;15.50;49.40
15844;DHT22;50807;52.436;13.346;2023-06-04T02:32:36;15.50;49.50
15844;DHT22;50807;52.436;13.346;2023-06-04T02:33:07;15.50;49.50
15844;DHT22;50807;52.436;13.346;2023-06-04T02:33:40;15.50;49.50
15844;DHT22;50807;52.436;13.346;2023-06-04T02:34:11;15.40;49.50
15844;DHT22;50807;52.436;13.346;2023-06-04T02:34:42;15.40;49.50
15844;DHT22;50807;52.436;13.346;2023-06-04T02:35:13;15.40;49.60
15844;DHT22;50807;52.436;13.346;2023-06-04T02:35:44;15.40;49.60
15844;DHT22;50807;52.436;13.346;2023-06-04T02:36:15;15.40;49.70
15844;DHT22;50807;52.436;13.346;2023-06-04T02:36:47;15.40;49.70
15844;DHT22;50807;52.436;13.346;2023-06-04T02:37:18;15.40;49.70
15844;DHT22;50807;52.436;13.346;2023-06-04T02:37:50;15.40;49.70
15844;DHT22;50807;52.436;13.346;2023-06-04T02:38:21;15.40;49.70
15844;DHT22;50807;52.436;13.346;2023-06-04T02:38:52;15.40;49.70
15844;DHT22;50807;52.436;13.346;2023-06-04T02:39:23;15.40;49.70
15844;DHT22;50807;52.436;13.346;2023-06-04T02:39:54;15.40;49.80
15844;DHT22;50807;52.436;13.346;2023-06-04T02:40:25;15.40;49.80
15844;DHT22;50807;52.436;13.346;2023-06-04T02:40:57;15.40;50.50
15844;DHT22;50807;52.436;13.346;2023-06-04T02:41:28;15.40;49.90
15844;DHT22;50807;52.436;13.346;2023-06-04T02:41:58;15.40;49.90
15844;DHT22;50807;52.436;13.346;2023-06-04T02:42:30;15.40;50.00
15844;DHT22;50807;52.436;13.346;2023-06-04T02:43:02;15.40;50.00
15844;DHT22;50807;52.436;13.346;2023-06-04T02:43:33;15.30;50.10
15844;DHT22;50807;52.436;13.346;2023-06-04T02:44:05;15.30;50.70
15844;DHT22;50807;52.436;13.346;2023-06-04T02:44:36;15.30;50.10
15844;DHT22;50807;52.436;13.346;2023-06-04T02:45:09;15.30;50.10
15844;DHT22;50807;52.436;13.346;2023-06-04T02:45:41;15.30;50.10
15844;DHT22;50807;52.436;13.346;2023-06-04T02:46:12;15.30;50.10
15844;DHT22;50807;52.436;13.346;2023-06-04T02:46:43;15.30;50.10
15844;DHT22;50807;52.436;13.346;2023-06-04T02:47:15;15.30;50.10
15844;DHT22;50807;52.436;13.346;2023-06-04T02:47:46;15.30;50.20
15844;DHT22;50807;52.436;13.346;2023-06-04T02:48:17;15.30;50.20
15844;DHT22;50807;52.436;13.346;2023-06-04T02:48:48;15.30;50.20
15844;DHT22;50807;52.436;13.346;2023-06-04T02:49:19;15.30;50.30
15844;DHT22;50807;52.436;13.346;2023-06-04T02:49:50;15.30;50.20
15844;DHT22;50807;52.436;13.346;2023-06-04T02:50:21;15.30;50.30
15844;DHT22;50807;52.436;13.346;2023-06-04T02:50:52;15.30;50.30
15844;DHT22;50807;52.436;13.346;2023-06-04T02:51:23;15.30;50.30
15844;DHT22;50807;52.436;13.346;2023-06-04T02:51:54;15.30;50.40
15844;DHT22;50807;52.436;13.346;2023-06-04T02:52:25;15.20;50.40
15844;DHT22;50807;52.436;13.346;2023-06-04T02:52:56;15.20;50.50
15844;DHT22;50807;52.436;13.346;2023-06-04T02:53:27;15.20;50.50
15844;DHT22;50807;52.436;13.346;2023-06-04T02:53:58;15.20;50.50
15844;DHT22;50807;52.436;13.346;2023-06-04T02:54:29;15.20;50.50
15844;DHT22;50807;52.436;13.346;2023-06-04T02:55:00;15.20;50.50
15844;DHT22;50807;52.436;13.346;2023-06-04T02:55:34;15.20;50.60
15844;DHT22;50807;52.436;13.346;2023-06-04T02:56:06;15.20;50.70
15844;DHT22;50807;52.436;13.346;2023-06-04T02:56:38;15.20;50.60
15844;DHT22;50807;52.436;13.346;2023-06-04T02:57:10;15.20;50.70
15844;DHT22;50807;52.436;13.346;2023-06-04T02:57:41;15.20;50.70
15844;DHT22;50807;52.436;13.346;2023-06-04T02:58:15;15.20;50.80
15844;DHT22;50807;52.436;13.346;2023-06-04T02:58:49;15.20;50.70
15844;DHT22;50807;52.436;13.346;2023-06-04T02:59:20;15.20;50.80
15844;DHT22;50807;52.436;13.346;2023-06-04T02:59:52;15.20;50.80
15844;DHT22;50807;52.436;13.346;2023-06-04T03:00:23;15.20;50.90
15844;DHT22;50807;52.436;13.346;2023-06-04T03:00:54;15.20;50.90
15844;DHT22;50807;52.436;13.346;2023-06-04T03:01:26;15.20;50.90
15844;DHT22;50807;52.436;13.346;2023-06-04T03:01:57;15.10;50.90
15844;DHT22;50807;52.436;13.346;2023-06-04T03:02:28;15.10;50.90
15844;DHT22;50807;52.436;13.346;2023-06-04T03:03:00;15.10;51.00
15844;DHT22;50807;52.436;13.346;2023-06-04T03:03:31;15.20;51.10
15844;DHT22;50807;52.436;13.346;2023-06-04T03:04:03;15.10;51.10
15844;DHT22;50807;52.436;13.346;2023-06-04T03:04:35;15.10;51.10
15844;DHT22;50807;52.436;13.346;2023-06-04T03:05:08;15.10;51.10
15844;DHT22;50807;52.436;13.346;2023-06-04T03:05:41;15.10;51.20
15844;DHT22;50807;52.436;13.346;2023-06-04T03:06:14;15.10;51.20
15844;DHT22;50807;52.436;13.346;2023-06-04T03:06:46;15.10;51.30
15844;DHT22;50807;52.436;13.346;2023-06-04T03:07:17;15.10;51.30
15844;DHT22;50807;52.436;13.346;2023-06-04T03:07:51;15.10;51.30
15844;DHT22;50807;52.436;13.346;2023-06-04T03:08:21;15.10;51.40
15844;DHT22;50807;52.436;13.346;2023-06-04T03:08:52;15.00;51.30
15844;DHT22;50807;52.436;13.346;2023-06-04T03:09:24;15.00;51.40
15844;DHT22;50807;52.436;13.346;2023-06-04T03:09:55;15.00;51.40
15844;DHT22;50807;52.436;13.346;2023-06-04T03:10:26;15.00;51.50
15844;DHT22;50807;52.436;13.346;2023-06-04T03:10:58;15.00;51.50
15844;DHT22;50807;52.436;13.346;2023-06-04T03:11:28;15.00;51.50
15844;DHT22;50807;52.436;13.346;2023-06-04T03:12:00;15.00;51.60
15844;DHT22;50807;52.436;13.346;2023-06-04T03:12:31;15.00;51.60
15844;DHT22;50807;52.436;13.346;2023-06-04T03:13:03;15.00;51.70
15844;DHT22;50807;52.436;13.346;2023-06-04T03:13:35;15.00;51.70
15844;DHT22;50807;52.436;13.346;2023-06-04T03:14:06;15.00;51.80
15844;DHT22;50807;52.436;13.346;2023-06-04T03:14:38;15.00;51.80
15844;DHT22;50807;52.436;13.346;2023-06-04T03:15:09;15.00;51.80
15844;DHT22;50807;52.436;13.346;2023-06-04T03:15:40;15.00;51.90
15844;DHT22;50807;52.436;13.346;2023-06-04T03:16:12;15.00;51.90
15844;DHT22;50807;52.436;13.346;2023-06-04T03:16:43;15.00;51.90
15844;DHT22;50807;52.436;13.346;2023-06-04T03:17:15;15.00;51.90
15844;DHT22;50807;52.436;13.346;2023-06-04T03:17:46;15.00;51.90
15844;DHT22;50807;52.436;13.346;2023-06-04T03:18:18;15.00;52.00
15844;DHT22;50807;52.436;13.346;2023-06-04T03:18:48;15.00;52.00
15844;DHT22;50807;52.436;13.346;2023-06-04T03:19:19;15.00;52.10
15844;DHT22;50807;52.436;13.346;2023-06-04T03:19:51;15.00;52.20